sensor_id;sensor_type;location;lat;lon;timestamp;P1;durP1;ratioP1;P2;durP2;ratioP2
9892;SDS011;4985;49.092;8.542;2022-11-18T00:01:44;1.77;;;0.93;;
9892;SDS011;4985;49.092;8.542;2022-11-18T00:04:10;1.03;;;0.80;;
9892;SDS011;4985;49.092;8.542;2022-11-18T00:06:37;1.33;;;0.80;;
9892;SDS011;4985;49.092;8.542;2022-11-18T00:09:05;1.20;;;0.80;;
9892;SDS011;4985;49.092;8.542;2022-11-18T00:11:31;1.97;;;1.00;;
9892;SDS011;4985;49.092;8.542;2022-11-18T00:14:16;1.33;;;1.00;;
9892;SDS011;4985;49.092;8.542;2022-11-18T00:16:45;1.40;;;1.00;;
9892;SDS011;4985;49.092;8.542;2022-11-18T00:19:12;0.73;;;0.73;;
9892;SDS011;4985;49.092;8.542;2022-11-18T00:21:39;1.10;;;0.70;;
9892;SDS011;4985;49.092;8.542;2022-11-18T00:24:07;2.97;;;1.30;;
9892;SDS011;4985;49.092;8.542;2022-11-18T00:26:34;1.83;;;1.10;;
9892;SDS011;4985;49.092;8.542;2022-11-18T00:29:01;1.00;;;0.80;;
9892;SDS011;4985;49.092;8.542;2022-11-18T00:31:28;1.33;;;1.00;;
9892;SDS011;4985;49.092;8.542;2022-11-18T00:33:55;1.27;;;1.00;;
9892;SDS011;4985;49.092;8.542;2022-11-18T00:36:23;1.47;;;1.00;;
9892;SDS011;4985;49.092;8.542;2022-11-18T00:38:50;0.93;;;0.93;;
9892;SDS011;4985;49.092;8.542;2022-11-18T00:41:18;3.97;;;1.10;;
9892;SDS011;4985;49.092;8.542;2022-11-18T00:43:45;1.10;;;0.80;;
9892;SDS011;4985;49.092;8.542;2022-11-18T00:46:12;0.77;;;0.77;;
9892;SDS011;4985;49.092;8.542;2022-11-18T00:48:39;2.00;;;1.10;;
9892;SDS011;4985;49.092;8.542;2022-11-18T00:51:06;1.00;;;0.90;;
9892;SDS011;4985;49.092;8.542;2022-11-18T00:53:35;0.77;;;0.77;;
9892;SDS011;4985;49.092;8.542;2022-11-18T00:56:01;1.03;;;0.90;;
9892;SDS011;4985;49.092;8.542;2022-11-18T00:58:30;2.20;;;0.87;;
9892;SDS011;4985;49.092;8.542;2022-11-18T01:00:56;1.13;;;0.90;;
9892;SDS011;4985;49.092;8.542;2022-11-18T01:03:23;0.83;;;0.77;;
9892;SDS011;4985;49.092;8.542;2022-11-18T01:05:50;1.13;;;0.90;;
9892;SDS011;4985;49.092;8.542;2022-11-18T01:08:16;1.20;;;0.80;;
9892;SDS011;4985;49.092;8.542;2022-11-18T01:10:43;0.87;;;0.87;;
9892;SDS011;4985;49.092;8.542;2022-11-18T01:13:12;1.90;;;0.93;;
9892;SDS011;4985;49.092;8.542;2022-11-18T01:15:47;1.30;;;0.70;;
9892;SDS011;4985;49.092;8.542;2022-11-18T01:18:15;1.23;;;0.90;;
9892;SDS011;4985;49.092;8.542;2022-11-18T01:20:43;1.00;;;0.70;;
9892;SDS011;4985;49.092;8.542;2022-11-18T01:23:11;2.47;;;1.00;;
9892;SDS011;4985;49.092;8.542;2022-11-18T01:25:39;0.93;;;0.80;;
9892;SDS011;4985;49.092;8.542;2022-11-18T01:28:07;1.53;;;0.80;;
9892;SDS011;4985;49.092;8.542;2022-11-18T01:30:34;0.57;;;0.50;;
9892;SDS011;4985;49.092;8.542;2022-11-18T01:33:04;1.40;;;0.87;;
9892;SDS011;4985;49.092;8.542;2022-11-18T01:35:33;1.07;;;0.80;;
9892;SDS011;4985;49.092;8.542;2022-11-18T01:38:00;1.50;;;1.40;;
9892;SDS011;4985;49.092;8.542;2022-11-18T01:40:26;2.37;;;1.00;;
9892;SDS011;4985;49.092;8.542;2022-11-18T01:42:53;1.23;;;0.90;;
9892;SDS011;4985;49.092;8.542;2022-11-18T01:45:24;2.10;;;1.20;;
9892;SDS011;4985;49.092;8.542;2022-11-18T01:47:57;0.93;;;0.77;;
9892;SDS011;4985;49.092;8.542;2022-11-18T01:50:29;2.97;;;1.37;;
9892;SDS011;4985;49.092;8.542;2022-11-18T01:52:58;1.87;;;1.13;;
9892;SDS011;4985;49.092;8.542;2022-11-18T01:55:31;2.13;;;1.30;;
9892;SDS011;4985;49.092;8.542;2022-11-18T01:58:02;4.20;;;1.30;;
9892;SDS011;4985;49.092;8.542;2022-11-18T02:00:32;1.80;;;0.83;;
9892;SDS011;4985;49.092;8.542;2022-11-18T02:03:00;1.30;;;0.80;;
9892;SDS011;4985;49.092;8.542;2022-11-18T02:05:29;1.43;;;0.93;;
9892;SDS011;4985;49.092;8.542;2022-11-18T02:07:58;0.60;;;0.60;;
9892;SDS011;4985;49.092;8.542;2022-11-18T02:10:26;1.17;;;0.50;;
9892;SDS011;4985;49.092;8.542;2022-11-18T02:12:53;1.53;;;0.87;;
9892;SDS011;4985;49.092;8.542;2022-11-18T02:15:24;0.70;;;0.60;;
9892;SDS011;4985;49.092;8.542;2022-11-18T02:17:58;1.30;;;0.90;;
9892;SDS011;4985;49.092;8.542;2022-11-18T02:20:31;0.97;;;0.73;;
9892;SDS011;4985;49.092;8.542;2022-11-18T02:29:17;0.70;;;0.70;;
9892;SDS011;4985;49.092;8.542;2022-11-18T02:31:51;0.60;;;0.60;;
9892;SDS011;4985;49.092;8.542;2022-11-18T02:34:24;0.47;;;0.47;;
9892;SDS011;4985;49.092;8.542;2022-11-18T02:37:03;0.83;;;0.77;;
9892;SDS011;4985;49.092;8.542;2022-11-18T02:39:38;2.67;;;0.80;;
9892;SDS011;4985;49.092;8.542;2022-11-18T02:42:11;1.50;;;0.80;;
9892;SDS011;4985;49.092;8.542;2022-11-18T02:44:42;0.63;;;0.63;;
9892;SDS011;4985;49.092;8.542;2022-11-18T02:47:12;3.13;;;1.47;;
9892;SDS011;4985;49.092;8.542;2022-11-18T02:49:43;0.83;;;0.60;;
9892;SDS011;4985;49.092;8.542;2022-11-18T02:52:13;0.80;;;0.80;;
9892;SDS011;4985;49.092;8.542;2022-11-18T02:54:43;0.80;;;0.67;;
9892;SDS011;4985;49.092;8.542;2022-11-18T02:57:12;2.20;;;1.00;;
9892;SDS011;4985;49.092;8.542;2022-11-18T02:59:42;1.57;;;0.70;;
9892;SDS011;4985;49.092;8.542;2022-11-18T03:02:09;1.73;;;1.00;;
9892;SDS011;4985;49.092;8.542;2022-11-18T03:04:41;1.90;;;0.80;;
9892;SDS011;4985;49.092;8.542;2022-11-18T03:07:10;2.20;;;0.80;;
9892;SDS011;4985;49.092;8.542;2022-11-18T03:09:41;0.60;;;0.60;;
9892;SDS011;4985;49.092;8.542;2022-11-18T03:12:10;1.03;;;0.63;;
9892;SDS011;4985;49.092;8.542;2022-11-18T03:14:48;0.90;;;0.50;;
9892;SDS011;4985;49.092;8.542;2022-11-18T03:17:24;0.90;;;0.80;;
9892;SDS011;4985;49.092;8.542;2022-11-18T03:20:03;0.70;;;0.70;;
9892;SDS011;4985;49.092;8.542;2022-11-18T03:22:36;0.70;;;0.70;;
9892;SDS011;4985;49.092;8.542;2022-11-18T03:25:06;0.80;;;0.80;;
9892;SDS011;4985;49.092;8.542;2022-11-18T03:27:37;1.47;;;0.80;;
9892;SDS011;4985;49.092;8.542;2022-11-18T03:30:14;0.70;;;0.70;;
9892;SDS011;4985;49.092;8.542;2022-11-18T03:32:44;0.70;;;0.70;;
9892;SDS011;4985;49.092;8.542;2022-11-18T03:35:16;1.07;;;0.60;;
9892;SDS011;4985;49.092;8.542;2022-11-18T03:37:45;0.60;;;0.60;;
9892;SDS011;4985;49.092;8.542;2022-11-18T03:40:16;0.63;;;0.60;;
9892;SDS011;4985;49.092;8.542;2022-11-18T03:42:46;0.63;;;0.63;;
9892;SDS011;4985;49.092;8.542;2022-11-18T03:45:18;0.87;;;0.60;;
9892;SDS011;4985;49.092;8.542;2022-11-18T03:47:50;0.50;;;0.50;;
9892;SDS011;4985;49.092;8.542;2022-11-18T03:50:24;0.60;;;0.60;;
9892;SDS011;4985;49.092;8.542;2022-11-18T03:52:54;2.07;;;0.70;;
9892;SDS011;4985;49.092;8.542;2022-11-18T03:55:22;0.60;;;0.60;;
9892;SDS011;4985;49.092;8.542;2022-11-18T03:57:53;0.87;;;0.60;;
9892;SDS011;4985;49.092;8.542;2022-11-18T04:00:28;0.57;;;0.57;;
9892;SDS011;4985;49.092;8.542;2022-11-18T04:02:59;0.73;;;0.60;;
9892;SDS011;4985;49.092;8.542;2022-11-18T04:05:26;0.87;;;0.87;;
9892;SDS011;4985;49.092;8.542;2022-11-18T04:07:56;0.67;;;0.67;;
9892;SDS011;4985;49.092;8.542;2022-11-18T04:10:28;0.70;;;0.70;;
9892;SDS011;4985;49.092;8.542;2022-11-18T04:12:58;3.33;;;0.73;;
9892;SDS011;4985;49.092;8.542;2022-11-18T04:15:31;2.93;;;0.90;;
9892;SDS011;4985;49.092;8.542;2022-11-18T04:17:58;1.10;;;1.00;;
9892;SDS011;4985;49.092;8.542;2022-11-18T04:20:25;1.70;;;0.90;;
9892;SDS011;4985;49.092;8.542;2022-11-18T04:22:53;2.70;;;1.23;;
9892;SDS011;4985;49.092;8.542;2022-11-18T04:25:20;1.07;;;0.90;;
9892;SDS011;4985;49.092;8.542;2022-11-18T04:27:48;1.20;;;1.10;;
9892;SDS011;4985;49.092;8.542;2022-11-18T04:30:15;1.13;;;0.90;;
9892;SDS011;4985;49.092;8.542;2022-11-18T04:32:44;1.57;;;0.90;;
9892;SDS011;4985;49.092;8.542;2022-11-18T04:35:10;1.67;;;0.80;;
9892;SDS011;4985;49.092;8.542;2022-11-18T04:37:37;0.60;;;0.60;;
9892;SDS011;4985;49.092;8.542;2022-11-18T04:40:04;0.80;;;0.80;;
9892;SDS011;4985;49.092;8.542;2022-11-18T04:42:31;1.23;;;0.80;;
9892;SDS011;4985;49.092;8.542;2022-11-18T04:44:58;0.70;;;0.70;;
9892;SDS011;4985;49.092;8.542;2022-11-18T04:47:25;0.73;;;0.70;;
9892;SDS011;4985;49.092;8.542;2022-11-18T04:49:53;0.73;;;0.70;;
9892;SDS011;4985;49.092;8.542;2022-11-18T04:52:21;2.23;;;0.90;;
9892;SDS011;4985;49.092;8.542;2022-11-18T04:54:48;1.00;;;1.00;;
9892;SDS011;4985;49.092;8.542;2022-11-18T04:57:14;0.63;;;0.63;;
9892;SDS011;4985;49.092;8.542;2022-11-18T04:59:41;1.17;;;0.73;;
9892;SDS011;4985;49.092;8.542;2022-11-18T05:02:08;2.10;;;0.70;;
9892;SDS011;4985;49.092;8.542;2022-11-18T05:04:34;0.77;;;0.77;;
9892;SDS011;4985;49.092;8.542;2022-11-18T05:07:03;0.70;;;0.70;;
9892;SDS011;4985;49.092;8.542;2022-11-18T05:09:31;1.43;;;0.87;;
9892;SDS011;4985;49.092;8.542;2022-11-18T05:11:58;0.80;;;0.60;;
9892;SDS011;4985;49.092;8.542;2022-11-18T05:14:43;0.93;;;0.90;;
9892;SDS011;4985;49.092;8.542;2022-11-18T05:17:09;0.80;;;0.80;;
9892;SDS011;4985;49.092;8.542;2022-11-18T05:19:36;0.80;;;0.80;;
9892;SDS011;4985;49.092;8.542;2022-11-18T05:22:05;1.43;;;1.00;;
9892;SDS011;4985;49.092;8.542;2022-11-18T05:24:32;1.77;;;0.90;;
9892;SDS011;4985;49.092;8.542;2022-11-18T05:26:58;1.57;;;0.70;;
9892;SDS011;4985;49.092;8.542;2022-11-18T05:29:25;0.70;;;0.70;;
9892;SDS011;4985;49.092;8.542;2022-11-18T05:31:52;1.27;;;1.17;;
9892;SDS011;4985;49.092;8.542;2022-11-18T05:34:18;0.60;;;0.60;;
9892;SDS011;4985;49.092;8.542;2022-11-18T05:36:45;1.33;;;0.70;;
9892;SDS011;4985;49.092;8.542;2022-11-18T05:39:13;1.40;;;0.87;;
9892;SDS011;4985;49.092;8.542;2022-11-18T05:41:40;1.10;;;0.80;;
9892;SDS011;4985;49.092;8.542;2022-11-18T05:44:24;1.00;;;0.80;;
9892;SDS011;4985;49.092;8.542;2022-11-18T05:46:51;0.70;;;0.70;;
9892;SDS011;4985;49.092;8.542;2022-11-18T05:49:18;1.60;;;0.83;;
9892;SDS011;4985;49.092;8.542;2022-11-18T05:51:45;0.70;;;0.70;;
9892;SDS011;4985;49.092;8.542;2022-11-18T05:54:13;0.73;;;0.70;;
9892;SDS011;4985;49.092;8.542;2022-11-18T05:56:42;1.23;;;1.10;;
9892;SDS011;4985;49.092;8.542;2022-11-18T05:59:10;1.40;;;1.10;;
9892;SDS011;4985;49.092;8.542;2022-11-18T06:01:39;2.40;;;1.43;;
9892;SDS011;4985;49.092;8.542;2022-11-18T06:04:10;0.60;;;0.60;;
9892;SDS011;4985;49.092;8.542;2022-11-18T06:06:40;1.03;;;0.80;;
9892;SDS011;4985;49.092;8.542;2022-11-18T06:09:08;1.47;;;1.10;;
9892;SDS011;4985;49.092;8.542;2022-11-18T06:11:37;0.97;;;0.80;;
9892;SDS011;4985;49.092;8.542;2022-11-18T06:14:08;0.50;;;0.50;;
9892;SDS011;4985;49.092;8.542;2022-11-18T06:16:38;0.70;;;0.70;;
9892;SDS011;4985;49.092;8.542;2022-11-18T06:19:09;1.50;;;1.00;;
9892;SDS011;4985;49.092;8.542;2022-11-18T06:21:35;1.07;;;0.77;;
9892;SDS011;4985;49.092;8.542;2022-11-18T06:24:02;1.63;;;0.73;;
9892;SDS011;4985;49.092;8.542;2022-11-18T06:26:31;0.70;;;0.70;;
9892;SDS011;4985;49.092;8.542;2022-11-18T06:28:59;1.20;;;0.80;;
9892;SDS011;4985;49.092;8.542;2022-11-18T06:31:25;0.60;;;0.60;;
9892;SDS011;4985;49.092;8.542;2022-11-18T06:33:52;0.80;;;0.80;;
9892;SDS011;4985;49.092;8.542;2022-11-18T06:36:19;0.83;;;0.83;;
9892;SDS011;4985;49.092;8.542;2022-11-18T06:38:45;2.90;;;0.80;;
9892;SDS011;4985;49.092;8.542;2022-11-18T06:41:12;0.60;;;0.60;;
9892;SDS011;4985;49.092;8.542;2022-11-18T06:43:38;1.10;;;1.00;;
9892;SDS011;4985;49.092;8.542;2022-11-18T06:46:08;1.63;;;1.30;;
9892;SDS011;4985;49.092;8.542;2022-11-18T06:48:53;2.63;;;0.90;;
9892;SDS011;4985;49.092;8.542;2022-11-18T06:51:20;1.03;;;0.93;;
9892;SDS011;4985;49.092;8.542;2022-11-18T06:53:47;0.90;;;0.90;;
9892;SDS011;4985;49.092;8.542;2022-11-18T06:56:15;0.80;;;0.80;;
9892;SDS011;4985;49.092;8.542;2022-11-18T06:58:43;2.30;;;1.07;;
9892;SDS011;4985;49.092;8.542;2022-11-18T07:01:15;0.93;;;0.83;;
9892;SDS011;4985;49.092;8.542;2022-11-18T07:03:43;1.97;;;1.10;;
9892;SDS011;4985;49.092;8.542;2022-11-18T07:06:20;1.20;;;1.10;;
9892;SDS011;4985;49.092;8.542;2022-11-18T07:08:47;0.80;;;0.80;;
9892;SDS011;4985;49.092;8.542;2022-11-18T07:11:16;2.17;;;0.87;;
9892;SDS011;4985;49.092;8.542;2022-11-18T07:13:44;0.97;;;0.87;;
9892;SDS011;4985;49.092;8.542;2022-11-18T07:16:11;0.87;;;0.80;;
9892;SDS011;4985;49.092;8.542;2022-11-18T07:18:41;0.67;;;0.67;;
9892;SDS011;4985;49.092;8.542;2022-11-18T07:21:09;0.80;;;0.80;;
9892;SDS011;4985;49.092;8.542;2022-11-18T07:23:37;1.20;;;1.00;;
9892;SDS011;4985;49.092;8.542;2022-11-18T07:26:04;0.60;;;0.60;;
9892;SDS011;4985;49.092;8.542;2022-11-18T07:28:32;1.10;;;1.00;;
9892;SDS011;4985;49.092;8.542;2022-11-18T07:30:59;0.80;;;0.80;;
9892;SDS011;4985;49.092;8.542;2022-11-18T07:33:27;1.10;;;0.90;;
9892;SDS011;4985;49.092;8.542;2022-11-18T07:35:55;0.80;;;0.80;;
9892;SDS011;4985;49.092;8.542;2022-11-18T07:38:26;1.17;;;0.80;;
9892;SDS011;4985;49.092;8.542;2022-11-18T07:40:52;0.70;;;0.70;;
9892;SDS011;4985;49.092;8.542;2022-11-18T07:43:19;0.77;;;0.77;;
9892;SDS011;4985;49.092;8.542;2022-11-18T07:45:46;0.60;;;0.60;;
9892;SDS011;4985;49.092;8.542;2022-11-18T07:48:12;1.13;;;0.73;;
9892;SDS011;4985;49.092;8.542;2022-11-18T07:50:39;0.77;;;0.77;;
9892;SDS011;4985;49.092;8.542;2022-11-18T07:53:07;0.70;;;0.70;;
9892;SDS011;4985;49.092;8.542;2022-11-18T07:55:33;1.63;;;0.80;;
9892;SDS011;4985;49.092;8.542;2022-11-18T07:58:00;0.60;;;0.60;;
9892;SDS011;4985;49.092;8.542;2022-11-18T08:00:27;0.70;;;0.70;;
9892;SDS011;4985;49.092;8.542;2022-11-18T08:02:53;0.50;;;0.50;;
9892;SDS011;4985;49.092;8.542;2022-11-18T08:05:20;1.23;;;0.73;;
9892;SDS011;4985;49.092;8.542;2022-11-18T08:07:47;1.80;;;0.90;;
9892;SDS011;4985;49.092;8.542;2022-11-18T08:10:15;0.73;;;0.73;;
9892;SDS011;4985;49.092;8.542;2022-11-18T08:12:42;0.80;;;0.80;;
9892;SDS011;4985;49.092;8.542;2022-11-18T08:15:08;0.80;;;0.77;;
9892;SDS011;4985;49.092;8.542;2022-11-18T08:17:35;0.80;;;0.80;;
9892;SDS011;4985;49.092;8.542;2022-11-18T08:20:02;0.70;;;0.70;;
9892;SDS011;4985;49.092;8.542;2022-11-18T08:22:29;7.03;;;1.10;;
9892;SDS011;4985;49.092;8.542;2022-11-18T08:24:56;2.43;;;0.90;;
9892;SDS011;4985;49.092;8.542;2022-11-18T08:27:24;1.03;;;0.83;;
9892;SDS011;4985;49.092;8.542;2022-11-18T08:29:50;0.70;;;0.60;;
9892;SDS011;4985;49.092;8.542;2022-11-18T08:32:17;0.73;;;0.70;;
9892;SDS011;4985;49.092;8.542;2022-11-18T08:34:44;1.10;;;1.00;;
9892;SDS011;4985;49.092;8.542;2022-11-18T08:37:10;0.80;;;0.80;;
9892;SDS011;4985;49.092;8.542;2022-11-18T08:39:37;0.77;;;0.77;;
9892;SDS011;4985;49.092;8.542;2022-11-18T08:42:03;0.83;;;0.80;;
9892;SDS011;4985;49.092;8.542;2022-11-18T08:44:31;0.70;;;0.70;;
9892;SDS011;4985;49.092;8.542;2022-11-18T08:46:58;0.60;;;0.60;;
9892;SDS011;4985;49.092;8.542;2022-11-18T08:49:27;1.10;;;0.73;;
9892;SDS011;4985;49.092;8.542;2022-11-18T08:51:57;0.60;;;0.60;;
9892;SDS011;4985;49.092;8.542;2022-11-18T08:54:23;0.90;;;0.73;;
9892;SDS011;4985;49.092;8.542;2022-11-18T08:56:50;0.60;;;0.60;;
9892;SDS011;4985;49.092;8.542;2022-11-18T08:59:16;0.70;;;0.70;;
9892;SDS011;4985;49.092;8.542;2022-11-18T09:01:44;0.70;;;0.70;;
9892;SDS011;4985;49.092;8.542;2022-11-18T09:04:11;0.97;;;0.60;;
9892;SDS011;4985;49.092;8.542;2022-11-18T09:06:38;0.67;;;0.63;;
9892;SDS011;4985;49.092;8.542;2022-11-18T09:09:04;1.00;;;0.80;;
9892;SDS011;4985;49.092;8.542;2022-11-18T09:11:32;0.80;;;0.80;;
9892;SDS011;4985;49.092;8.542;2022-11-18T09:13:59;1.10;;;0.90;;
9892;SDS011;4985;49.092;8.542;2022-11-18T09:16:27;1.27;;;1.00;;
9892;SDS011;4985;49.092;8.542;2022-11-18T09:18:57;1.20;;;1.00;;
9892;SDS011;4985;49.092;8.542;2022-11-18T09:21:25;1.00;;;0.90;;
9892;SDS011;4985;49.092;8.542;2022-11-18T09:23:52;2.10;;;1.27;;
9892;SDS011;4985;49.092;8.542;2022-11-18T09:26:19;1.47;;;1.10;;
9892;SDS011;4985;49.092;8.542;2022-11-18T09:28:47;2.00;;;1.17;;
9892;SDS011;4985;49.092;8.542;2022-11-18T09:31:15;2.00;;;1.20;;
9892;SDS011;4985;49.092;8.542;2022-11-18T09:33:43;1.70;;;1.40;;
9892;SDS011;4985;49.092;8.542;2022-11-18T09:36:12;1.60;;;1.20;;
9892;SDS011;4985;49.092;8.542;2022-11-18T09:39:10;1.70;;;1.27;;
9892;SDS011;4985;49.092;8.542;2022-11-18T09:41:39;1.27;;;1.00;;
9892;SDS011;4985;49.092;8.542;2022-11-18T09:44:20;2.03;;;1.10;;
9892;SDS011;4985;49.092;8.542;2022-11-18T09:47:00;1.13;;;1.03;;
9892;SDS011;4985;49.092;8.542;2022-11-18T09:49:32;1.37;;;1.27;;
9892;SDS011;4985;49.092;8.542;2022-11-18T09:52:02;2.27;;;1.30;;
9892;SDS011;4985;49.092;8.542;2022-11-18T09:54:32;3.70;;;1.73;;
9892;SDS011;4985;49.092;8.542;2022-11-18T09:57:00;2.13;;;1.50;;
9892;SDS011;4985;49.092;8.542;2022-11-18T09:59:29;1.67;;;1.50;;
9892;SDS011;4985;49.092;8.542;2022-11-18T10:02:02;2.17;;;1.13;;
9892;SDS011;4985;49.092;8.542;2022-11-18T10:04:36;4.93;;;1.43;;
9892;SDS011;4985;49.092;8.542;2022-11-18T10:07:04;1.43;;;1.30;;
9892;SDS011;4985;49.092;8.542;2022-11-18T10:09:39;2.33;;;1.30;;
9892;SDS011;4985;49.092;8.542;2022-11-18T10:12:11;3.90;;;1.53;;
9892;SDS011;4985;49.092;8.542;2022-11-18T10:14:50;2.23;;;1.40;;
9892;SDS011;4985;49.092;8.542;2022-11-18T10:17:34;2.63;;;1.30;;
9892;SDS011;4985;49.092;8.542;2022-11-18T10:20:16;3.33;;;1.50;;
9892;SDS011;4985;49.092;8.542;2022-11-18T10:22:49;2.43;;;1.33;;
9892;SDS011;4985;49.092;8.542;2022-11-18T10:25:24;1.80;;;1.37;;
9892;SDS011;4985;49.092;8.542;2022-11-18T10:27:51;1.43;;;1.30;;
9892;SDS011;4985;49.092;8.542;2022-11-18T10:30:18;3.13;;;1.50;;
9892;SDS011;4985;49.092;8.542;2022-11-18T10:32:51;3.57;;;1.70;;
9892;SDS011;4985;49.092;8.542;2022-11-18T10:35:23;2.03;;;1.40;;
9892;SDS011;4985;49.092;8.542;2022-11-18T10:38:02;3.83;;;1.50;;
9892;SDS011;4985;49.092;8.542;2022-11-18T10:40:32;4.07;;;1.70;;
9892;SDS011;4985;49.092;8.542;2022-11-18T10:42:59;3.90;;;1.47;;
9892;SDS011;4985;49.092;8.542;2022-11-18T10:45:27;3.03;;;1.27;;
9892;SDS011;4985;49.092;8.542;2022-11-18T10:47:55;4.17;;;1.43;;
9892;SDS011;4985;49.092;8.542;2022-11-18T10:50:28;1.43;;;1.20;;
9892;SDS011;4985;49.092;8.542;2022-11-18T10:52:58;3.53;;;1.50;;
9892;SDS011;4985;49.092;8.542;2022-11-18T10:55:25;2.00;;;1.40;;
9892;SDS011;4985;49.092;8.542;2022-11-18T10:57:54;2.80;;;1.40;;
9892;SDS011;4985;49.092;8.542;2022-11-18T11:00:31;1.20;;;1.10;;
9892;SDS011;4985;49.092;8.542;2022-11-18T11:03:21;1.50;;;1.30;;
9892;SDS011;4985;49.092;8.542;2022-11-18T11:08:56;3.27;;;1.50;;
9892;SDS011;4985;49.092;8.542;2022-11-18T11:11:26;1.37;;;1.07;;
9892;SDS011;4985;49.092;8.542;2022-11-18T11:13:59;2.13;;;1.30;;
9892;SDS011;4985;49.092;8.542;2022-11-18T11:16:44;2.97;;;1.70;;
9892;SDS011;4985;49.092;8.542;2022-11-18T11:19:17;2.27;;;1.47;;
9892;SDS011;4985;49.092;8.542;2022-11-18T11:21:47;1.27;;;1.17;;
9892;SDS011;4985;49.092;8.542;2022-11-18T11:24:14;1.47;;;1.10;;
9892;SDS011;4985;49.092;8.542;2022-11-18T11:26:44;1.30;;;1.20;;
9892;SDS011;4985;49.092;8.542;2022-11-18T11:29:19;3.33;;;1.47;;
9892;SDS011;4985;49.092;8.542;2022-11-18T11:31:58;2.17;;;1.40;;
9892;SDS011;4985;49.092;8.542;2022-11-18T11:34:35;2.07;;;1.27;;
9892;SDS011;4985;49.092;8.542;2022-11-18T11:37:11;3.77;;;1.40;;
9892;SDS011;4985;49.092;8.542;2022-11-18T11:39:47;1.33;;;1.10;;
9892;SDS011;4985;49.092;8.542;2022-11-18T11:42:28;2.93;;;1.50;;
9892;SDS011;4985;49.092;8.542;2022-11-18T11:45:05;1.87;;;1.30;;
9892;SDS011;4985;49.092;8.542;2022-11-18T11:47:46;1.50;;;1.40;;
9892;SDS011;4985;49.092;8.542;2022-11-18T11:50:24;1.73;;;1.40;;
9892;SDS011;4985;49.092;8.542;2022-11-18T11:53:08;1.93;;;1.50;;
9892;SDS011;4985;49.092;8.542;2022-11-18T11:55:46;1.10;;;1.00;;
9892;SDS011;4985;49.092;8.542;2022-11-18T11:58:25;2.70;;;1.70;;
9892;SDS011;4985;49.092;8.542;2022-11-18T12:01:08;1.50;;;1.30;;
9892;SDS011;4985;49.092;8.542;2022-11-18T12:03:44;2.37;;;1.40;;
9892;SDS011;4985;49.092;8.542;2022-11-18T12:06:12;3.30;;;1.50;;
9892;SDS011;4985;49.092;8.542;2022-11-18T12:08:42;2.97;;;1.47;;
9892;SDS011;4985;49.092;8.542;2022-11-18T12:11:19;2.83;;;1.60;;
9892;SDS011;4985;49.092;8.542;2022-11-18T12:13:52;3.03;;;1.13;;
9892;SDS011;4985;49.092;8.542;2022-11-18T12:16:29;2.50;;;1.40;;
9892;SDS011;4985;49.092;8.542;2022-11-18T12:19:05;4.03;;;2.67;;
9892;SDS011;4985;49.092;8.542;2022-11-18T12:21:55;4.53;;;1.70;;
9892;SDS011;4985;49.092;8.542;2022-11-18T12:24:34;2.67;;;1.30;;
9892;SDS011;4985;49.092;8.542;2022-11-18T12:27:04;2.73;;;1.30;;
9892;SDS011;4985;49.092;8.542;2022-11-18T12:29:35;6.17;;;1.43;;
9892;SDS011;4985;49.092;8.542;2022-11-18T12:32:22;2.63;;;1.33;;
9892;SDS011;4985;49.092;8.542;2022-11-18T12:34:56;2.73;;;1.40;;
9892;SDS011;4985;49.092;8.542;2022-11-18T12:37:37;4.13;;;1.10;;
9892;SDS011;4985;49.092;8.542;2022-11-18T12:40:08;3.00;;;1.30;;
9892;SDS011;4985;49.092;8.542;2022-11-18T12:42:39;2.73;;;1.50;;
9892;SDS011;4985;49.092;8.542;2022-11-18T12:48:28;2.50;;;1.37;;
9892;SDS011;4985;49.092;8.542;2022-11-18T12:54:21;2.77;;;1.37;;
9892;SDS011;4985;49.092;8.542;2022-11-18T12:56:51;2.10;;;1.33;;
9892;SDS011;4985;49.092;8.542;2022-11-18T12:59:24;2.10;;;1.50;;
9892;SDS011;4985;49.092;8.542;2022-11-18T13:02:00;1.60;;;1.20;;
9892;SDS011;4985;49.092;8.542;2022-11-18T13:04:33;2.17;;;1.30;;
9892;SDS011;4985;49.092;8.542;2022-11-18T13:06:59;2.67;;;1.43;;
9892;SDS011;4985;49.092;8.542;2022-11-18T13:09:28;3.83;;;1.60;;
9892;SDS011;4985;49.092;8.542;2022-11-18T13:11:57;2.90;;;1.37;;
9892;SDS011;4985;49.092;8.542;2022-11-18T13:14:27;3.97;;;1.40;;
9892;SDS011;4985;49.092;8.542;2022-11-18T13:17:22;1.63;;;1.40;;
9892;SDS011;4985;49.092;8.542;2022-11-18T13:20:18;5.40;;;1.70;;
9892;SDS011;4985;49.092;8.542;2022-11-18T13:22:55;2.87;;;1.47;;
9892;SDS011;4985;49.092;8.542;2022-11-18T13:25:43;2.43;;;1.23;;
9892;SDS011;4985;49.092;8.542;2022-11-18T13:28:16;3.20;;;1.40;;
9892;SDS011;4985;49.092;8.542;2022-11-18T13:30:52;3.87;;;1.40;;
9892;SDS011;4985;49.092;8.542;2022-11-18T13:33:24;3.03;;;1.30;;
9892;SDS011;4985;49.092;8.542;2022-11-18T13:35:52;2.33;;;1.00;;
9892;SDS011;4985;49.092;8.542;2022-11-18T13:38:20;2.03;;;1.30;;
9892;SDS011;4985;49.092;8.542;2022-11-18T13:40:49;2.63;;;1.20;;
9892;SDS011;4985;49.092;8.542;2022-11-18T13:43:37;1.47;;;1.00;;
9892;SDS011;4985;49.092;8.542;2022-11-18T13:46:06;3.13;;;1.27;;
9892;SDS011;4985;49.092;8.542;2022-11-18T13:48:38;3.20;;;1.23;;
9892;SDS011;4985;49.092;8.542;2022-11-18T13:51:12;2.47;;;1.30;;
9892;SDS011;4985;49.092;8.542;2022-11-18T13:53:39;4.77;;;2.23;;
9892;SDS011;4985;49.092;8.542;2022-11-18T13:56:11;2.70;;;1.37;;
9892;SDS011;4985;49.092;8.542;2022-11-18T13:58:44;1.30;;;1.00;;
9892;SDS011;4985;49.092;8.542;2022-11-18T14:01:18;3.47;;;1.40;;
9892;SDS011;4985;49.092;8.542;2022-11-18T14:03:48;3.20;;;1.40;;
9892;SDS011;4985;49.092;8.542;2022-11-18T14:06:24;1.77;;;1.10;;
9892;SDS011;4985;49.092;8.542;2022-11-18T14:09:02;1.30;;;1.10;;
9892;SDS011;4985;49.092;8.542;2022-11-18T14:11:34;4.10;;;1.70;;
9892;SDS011;4985;49.092;8.542;2022-11-18T14:14:03;3.03;;;1.63;;
9892;SDS011;4985;49.092;8.542;2022-11-18T14:16:31;3.47;;;1.70;;
9892;SDS011;4985;49.092;8.542;2022-11-18T14:19:00;2.43;;;1.60;;
9892;SDS011;4985;49.092;8.542;2022-11-18T14:21:28;3.47;;;2.30;;
9892;SDS011;4985;49.092;8.542;2022-11-18T14:23:56;4.53;;;2.43;;
9892;SDS011;4985;49.092;8.542;2022-11-18T14:26:27;3.50;;;1.90;;
9892;SDS011;4985;49.092;8.542;2022-11-18T14:28:55;2.73;;;1.47;;
9892;SDS011;4985;49.092;8.542;2022-11-18T14:31:23;2.50;;;1.47;;
9892;SDS011;4985;49.092;8.542;2022-11-18T14:34:03;3.37;;;1.37;;
9892;SDS011;4985;49.092;8.542;2022-11-18T14:36:32;3.37;;;1.40;;
9892;SDS011;4985;49.092;8.542;2022-11-18T14:38:59;3.57;;;1.27;;
9892;SDS011;4985;49.092;8.542;2022-11-18T14:41:25;2.50;;;0.90;;
9892;SDS011;4985;49.092;8.542;2022-11-18T14:44:09;1.73;;;1.20;;
9892;SDS011;4985;49.092;8.542;2022-11-18T14:46:37;4.03;;;1.10;;
9892;SDS011;4985;49.092;8.542;2022-11-18T14:49:04;2.43;;;1.17;;
9892;SDS011;4985;49.092;8.542;2022-11-18T14:51:38;2.67;;;1.60;;
9892;SDS011;4985;49.092;8.542;2022-11-18T14:54:05;3.57;;;1.60;;
9892;SDS011;4985;49.092;8.542;2022-11-18T14:56:32;3.57;;;1.67;;
9892;SDS011;4985;49.092;8.542;2022-11-18T14:59:00;4.40;;;1.70;;
9892;SDS011;4985;49.092;8.542;2022-11-18T15:01:26;3.90;;;1.63;;
9892;SDS011;4985;49.092;8.542;2022-11-18T15:03:53;3.87;;;1.67;;
9892;SDS011;4985;49.092;8.542;2022-11-18T15:06:20;1.93;;;1.60;;
9892;SDS011;4985;49.092;8.542;2022-11-18T15:08:50;2.70;;;1.70;;
9892;SDS011;4985;49.092;8.542;2022-11-18T15:11:18;3.33;;;2.40;;
9892;SDS011;4985;49.092;8.542;2022-11-18T15:13:44;5.03;;;2.40;;
9892;SDS011;4985;49.092;8.542;2022-11-18T15:16:12;2.10;;;1.20;;
9892;SDS011;4985;49.092;8.542;2022-11-18T15:18:40;2.93;;;1.50;;
9892;SDS011;4985;49.092;8.542;2022-11-18T15:21:07;1.37;;;1.10;;
9892;SDS011;4985;49.092;8.542;2022-11-18T15:23:34;1.80;;;1.33;;
9892;SDS011;4985;49.092;8.542;2022-11-18T15:26:19;2.00;;;1.30;;
9892;SDS011;4985;49.092;8.542;2022-11-18T15:28:47;2.63;;;1.40;;
9892;SDS011;4985;49.092;8.542;2022-11-18T15:31:14;2.53;;;1.53;;
9892;SDS011;4985;49.092;8.542;2022-11-18T15:33:42;5.20;;;1.73;;
9892;SDS011;4985;49.092;8.542;2022-11-18T15:36:10;4.83;;;1.70;;
9892;SDS011;4985;49.092;8.542;2022-11-18T15:38:38;2.00;;;1.30;;
9892;SDS011;4985;49.092;8.542;2022-11-18T15:41:06;1.97;;;1.40;;
9892;SDS011;4985;49.092;8.542;2022-11-18T15:43:38;3.23;;;1.43;;
9892;SDS011;4985;49.092;8.542;2022-11-18T15:46:05;5.00;;;2.03;;
9892;SDS011;4985;49.092;8.542;2022-11-18T15:48:32;6.63;;;1.73;;
9892;SDS011;4985;49.092;8.542;2022-11-18T15:50:58;3.63;;;1.63;;